sensor_id;sensor_type;location;lat;lon;timestamp;temperature;humidity
24632;DHT22;59977;48.782;9.190;2023-07-29T00:00:43;19.40;99.90
24632;DHT22;59977;48.782;9.190;2023-07-29T00:03:09;19.40;99.90
24632;DHT22;59977;48.782;9.190;2023-07-29T00:05:39;19.40;99.90
24632;DHT22;59977;48.782;9.190;2023-07-29T00:08:05;19.40;99.90
24632;DHT22;59977;48.782;9.190;2023-07-29T00:10:31;19.40;99.90
24632;DHT22;59977;48.782;9.190;2023-07-29T00:12:58;19.30;99.90
24632;DHT22;59977;48.782;9.190;2023-07-29T00:15:23;19.40;99.90
24632;DHT22;59977;48.782;9.190;2023-07-29T00:17:49;19.40;99.90
24632;DHT22;59977;48.782;9.190;2023-07-29T00:20:15;19.40;99.90
24632;DHT22;59977;48.782;9.190;2023-07-29T00:22:40;19.40;99.90
24632;DHT22;59977;48.782;9.190;2023-07-29T00:25:06;19.40;99.90
24632;DHT22;59977;48.782;9.190;2023-07-29T00:27:32;19.40;99.90
24632;DHT22;59977;48.782;9.190;2023-07-29T00:29:58;19.40;99.90
24632;DHT22;59977;48.782;9.190;2023-07-29T00:32:23;19.40;99.90
24632;DHT22;59977;48.782;9.190;2023-07-29T00:34:49;19.30;99.90
24632;DHT22;59977;48.782;9.190;2023-07-29T00:37:15;19.30;99.90
24632;DHT22;59977;48.782;9.190;2023-07-29T00:39:40;19.30;99.90
24632;DHT22;59977;48.782;9.190;2023-07-29T00:42:06;19.30;99.90
24632;DHT22;59977;48.782;9.190;2023-07-29T00:44:32;19.30;99.90
24632;DHT22;59977;48.782;9.190;2023-07-29T00:46:58;19.30;99.90
24632;DHT22;59977;48.782;9.190;2023-07-29T00:49:26;19.30;99.90
24632;DHT22;59977;48.782;9.190;2023-07-29T00:51:51;19.30;99.90
24632;DHT22;59977;48.782;9.190;2023-07-29T00:54:17;19.30;99.90
24632;DHT22;59977;48.782;9.190;2023-07-29T00:56:43;19.30;99.90
24632;DHT22;59977;48.782;9.190;2023-07-29T00:59:09;19.30;99.90
24632;DHT22;59977;48.782;9.190;2023-07-29T01:01:34;19.30;99.90
24632;DHT22;59977;48.782;9.190;2023-07-29T01:04:00;19.30;99.90
24632;DHT22;59977;48.782;9.190;2023-07-29T01:15:24;19.30;99.90
24632;DHT22;59977;48.782;9.190;2023-07-29T01:18:04;19.30;99.90
24632;DHT22;59977;48.782;9.190;2023-07-29T01:20:33;19.40;99.90
24632;DHT22;59977;48.782;9.190;2023-07-29T01:22:58;19.30;99.90
24632;DHT22;59977;48.782;9.190;2023-07-29T01:25:24;19.30;99.90
24632;DHT22;59977;48.782;9.190;2023-07-29T01:27:52;19.20;99.90
24632;DHT22;59977;48.782;9.190;2023-07-29T01:30:19;19.20;99.90
24632;DHT22;59977;48.782;9.190;2023-07-29T01:40:40;19.30;99.90
24632;DHT22;59977;48.782;9.190;2023-07-29T01:43:06;19.30;99.90
24632;DHT22;59977;48.782;9.190;2023-07-29T01:45:35;19.30;99.90
24632;DHT22;59977;48.782;9.190;2023-07-29T01:48:04;19.30;99.90
24632;DHT22;59977;48.782;9.190;2023-07-29T01:50:30;19.30;99.90
24632;DHT22;59977;48.782;9.190;2023-07-29T01:52:57;19.30;99.90
24632;DHT22;59977;48.782;9.190;2023-07-29T01:55:23;19.40;99.90
24632;DHT22;59977;48.782;9.190;2023-07-29T01:57:48;19.30;99.90
24632;DHT22;59977;48.782;9.190;2023-07-29T02:00:15;19.40;99.90
24632;DHT22;59977;48.782;9.190;2023-07-29T02:02:41;19.40;99.90
24632;DHT22;59977;48.782;9.190;2023-07-29T02:05:07;19.40;99.90
24632;DHT22;59977;48.782;9.190;2023-07-29T02:07:32;19.40;99.90
24632;DHT22;59977;48.782;9.190;2023-07-29T02:09:58;19.40;99.90
24632;DHT22;59977;48.782;9.190;2023-07-29T02:12:24;19.30;99.90
24632;DHT22;59977;48.782;9.190;2023-07-29T02:14:49;19.30;99.90
24632;DHT22;59977;48.782;9.190;2023-07-29T02:17:15;19.30;99.90
24632;DHT22;59977;48.782;9.190;2023-07-29T02:19:41;19.20;99.90
24632;DHT22;59977;48.782;9.190;2023-07-29T02:22:06;19.20;99.90
24632;DHT22;59977;48.782;9.190;2023-07-29T02:24:32;19.20;99.90
24632;DHT22;59977;48.782;9.190;2023-07-29T02:26:58;19.10;99.90
24632;DHT22;59977;48.782;9.190;2023-07-29T02:29:23;19.10;99.90
24632;DHT22;59977;48.782;9.190;2023-07-29T02:31:50;19.10;99.90
24632;DHT22;59977;48.782;9.190;2023-07-29T02:34:16;19.10;99.90
24632;DHT22;59977;48.782;9.190;2023-07-29T02:36:41;19.10;99.90
24632;DHT22;59977;48.782;9.190;2023-07-29T02:39:07;19.10;99.90
24632;DHT22;59977;48.782;9.190;2023-07-29T02:41:32;19.10;99.90
24632;DHT22;59977;48.782;9.190;2023-07-29T02:43:58;19.10;99.90
24632;DHT22;59977;48.782;9.190;2023-07-29T02:46:24;19.10;99.90
24632;DHT22;59977;48.782;9.190;2023-07-29T02:48:50;19.10;99.90
24632;DHT22;59977;48.782;9.190;2023-07-29T02:51:16;19.10;99.90
24632;DHT22;59977;48.782;9.190;2023-07-29T02:53:42;19.20;99.90
24632;DHT22;59977;48.782;9.190;2023-07-29T02:56:08;19.10;99.90
24632;DHT22;59977;48.782;9.190;2023-07-29T02:58:36;19.20;99.90
24632;DHT22;59977;48.782;9.190;2023-07-29T03:01:03;19.20;99.90
24632;DHT22;59977;48.782;9.190;2023-07-29T03:03:29;19.20;99.90
24632;DHT22;59977;48.782;9.190;2023-07-29T03:06:09;19.20;99.90
24632;DHT22;59977;48.782;9.190;2023-07-29T03:08:35;19.10;99.90
24632;DHT22;59977;48.782;9.190;2023-07-29T03:11:08;19.10;99.90
24632;DHT22;59977;48.782;9.190;2023-07-29T03:13:34;19.10;99.90
24632;DHT22;59977;48.782;9.190;2023-07-29T03:18:32;19.10;99.90
24632;DHT22;59977;48.782;9.190;2023-07-29T03:20:57;19.10;99.90
24632;DHT22;59977;48.782;9.190;2023-07-29T03:23:23;19.00;99.90
24632;DHT22;59977;48.782;9.190;2023-07-29T03:25:49;19.00;99.90
24632;DHT22;59977;48.782;9.190;2023-07-29T03:28:16;19.10;99.90
24632;DHT22;59977;48.782;9.190;2023-07-29T03:30:42;19.00;99.90
24632;DHT22;59977;48.782;9.190;2023-07-29T03:33:08;19.10;99.90
24632;DHT22;59977;48.782;9.190;2023-07-29T03:35:33;19.10;99.90
24632;DHT22;59977;48.782;9.190;2023-07-29T03:37:59;19.10;99.90
24632;DHT22;59977;48.782;9.190;2023-07-29T03:40:24;19.20;99.90
24632;DHT22;59977;48.782;9.190;2023-07-29T03:42:50;19.10;99.90
24632;DHT22;59977;48.782;9.190;2023-07-29T03:45:15;19.10;99.90
24632;DHT22;59977;48.782;9.190;2023-07-29T03:47:41;19.10;99.90
24632;DHT22;59977;48.782;9.190;2023-07-29T03:50:07;19.10;99.90
24632;DHT22;59977;48.782;9.190;2023-07-29T03:52:33;19.20;99.90
24632;DHT22;59977;48.782;9.190;2023-07-29T03:54:59;19.20;99.90
24632;DHT22;59977;48.782;9.190;2023-07-29T03:57:24;19.10;99.90
24632;DHT22;59977;48.782;9.190;2023-07-29T03:59:50;19.20;99.90
24632;DHT22;59977;48.782;9.190;2023-07-29T04:02:16;19.20;99.90
24632;DHT22;59977;48.782;9.190;2023-07-29T04:04:41;19.10;99.90
24632;DHT22;59977;48.782;9.190;2023-07-29T04:07:08;19.20;99.90
24632;DHT22;59977;48.782;9.190;2023-07-29T04:09:33;19.10;99.90
24632;DHT22;59977;48.782;9.190;2023-07-29T04:11:59;19.10;99.90
24632;DHT22;59977;48.782;9.190;2023-07-29T04:14:24;19.20;99.90
24632;DHT22;59977;48.782;9.190;2023-07-29T04:16:50;19.10;99.90
24632;DHT22;59977;48.782;9.190;2023-07-29T04:19:16;19.10;99.90
24632;DHT22;59977;48.782;9.190;2023-07-29T04:21:41;19.20;99.90
24632;DHT22;59977;48.782;9.190;2023-07-29T04:24:07;19.20;99.90
24632;DHT22;59977;48.782;9.190;2023-07-29T04:26:32;19.20;99.90
24632;DHT22;59977;48.782;9.190;2023-07-29T04:28:58;19.20;99.90
24632;DHT22;59977;48.782;9.190;2023-07-29T04:31:24;19.20;99.90
24632;DHT22;59977;48.782;9.190;2023-07-29T04:33:49;19.10;99.90
24632;DHT22;59977;48.782;9.190;2023-07-29T04:36:15;19.10;99.90
24632;DHT22;59977;48.782;9.190;2023-07-29T04:38:40;19.00;99.90
24632;DHT22;59977;48.782;9.190;2023-07-29T04:41:06;19.10;99.90
24632;DHT22;59977;48.782;9.190;2023-07-29T04:43:34;19.10;99.90
24632;DHT22;59977;48.782;9.190;2023-07-29T04:45:59;19.10;99.90
24632;DHT22;59977;48.782;9.190;2023-07-29T04:48:25;19.10;99.90
24632;DHT22;59977;48.782;9.190;2023-07-29T04:50:51;19.10;99.90
24632;DHT22;59977;48.782;9.190;2023-07-29T04:53:16;19.10;99.90
24632;DHT22;59977;48.782;9.190;2023-07-29T04:55:42;19.10;99.90
24632;DHT22;59977;48.782;9.190;2023-07-29T04:58:11;19.10;99.90
24632;DHT22;59977;48.782;9.190;2023-07-29T05:00:36;19.00;99.90
24632;DHT22;59977;48.782;9.190;2023-07-29T05:03:02;19.00;99.90
24632;DHT22;59977;48.782;9.190;2023-07-29T05:05:28;19.10;99.90
24632;DHT22;59977;48.782;9.190;2023-07-29T05:07:53;19.10;99.90
24632;DHT22;59977;48.782;9.190;2023-07-29T05:10:19;19.00;99.90
24632;DHT22;59977;48.782;9.190;2023-07-29T05:12:44;19.10;99.90
24632;DHT22;59977;48.782;9.190;2023-07-29T05:15:10;19.10;99.90
24632;DHT22;59977;48.782;9.190;2023-07-29T05:17:36;19.10;99.90
24632;DHT22;59977;48.782;9.190;2023-07-29T05:20:02;19.20;99.90
24632;DHT22;59977;48.782;9.190;2023-07-29T05:22:28;19.20;99.90
24632;DHT22;59977;48.782;9.190;2023-07-29T05:24:53;19.20;99.90
24632;DHT22;59977;48.782;9.190;2023-07-29T05:27:19;19.20;99.90
24632;DHT22;59977;48.782;9.190;2023-07-29T05:29:44;19.30;99.90
24632;DHT22;59977;48.782;9.190;2023-07-29T05:32:10;19.30;99.90
24632;DHT22;59977;48.782;9.190;2023-07-29T05:34:36;19.40;99.90
24632;DHT22;59977;48.782;9.190;2023-07-29T05:37:01;19.40;99.90
24632;DHT22;59977;48.782;9.190;2023-07-29T05:39:27;19.40;99.90
24632;DHT22;59977;48.782;9.190;2023-07-29T05:41:52;19.40;99.90
24632;DHT22;59977;48.782;9.190;2023-07-29T05:44:18;19.40;99.90
24632;DHT22;59977;48.782;9.190;2023-07-29T05:46:43;19.40;99.90
24632;DHT22;59977;48.782;9.190;2023-07-29T05:49:09;19.40;99.90
24632;DHT22;59977;48.782;9.190;2023-07-29T05:51:35;19.50;99.90
24632;DHT22;59977;48.782;9.190;2023-07-29T05:54:00;19.50;99.90
24632;DHT22;59977;48.782;9.190;2023-07-29T05:56:26;19.70;99.90
24632;DHT22;59977;48.782;9.190;2023-07-29T05:58:51;19.60;99.90
24632;DHT22;59977;48.782;9.190;2023-07-29T06:01:17;19.70;99.90
24632;DHT22;59977;48.782;9.190;2023-07-29T06:03:43;19.80;99.90
24632;DHT22;59977;48.782;9.190;2023-07-29T06:06:08;19.80;99.90
24632;DHT22;59977;48.782;9.190;2023-07-29T06:08:34;20.00;99.90
24632;DHT22;59977;48.782;9.190;2023-07-29T06:11:00;20.10;99.90
24632;DHT22;59977;48.782;9.190;2023-07-29T06:13:26;20.30;99.90
24632;DHT22;59977;48.782;9.190;2023-07-29T06:15:51;20.30;99.90
24632;DHT22;59977;48.782;9.190;2023-07-29T06:18:17;20.40;99.90
24632;DHT22;59977;48.782;9.190;2023-07-29T06:20:42;20.40;99.90
24632;DHT22;59977;48.782;9.190;2023-07-29T06:23:08;20.40;99.90
24632;DHT22;59977;48.782;9.190;2023-07-29T06:25:34;20.40;99.90
24632;DHT22;59977;48.782;9.190;2023-07-29T06:28:00;20.50;99.90
24632;DHT22;59977;48.782;9.190;2023-07-29T06:30:25;20.50;99.90
24632;DHT22;59977;48.782;9.190;2023-07-29T06:32:51;20.50;99.90
24632;DHT22;59977;48.782;9.190;2023-07-29T06:35:17;20.40;99.90
24632;DHT22;59977;48.782;9.190;2023-07-29T06:37:42;20.40;99.90
24632;DHT22;59977;48.782;9.190;2023-07-29T06:40:08;20.40;99.90
24632;DHT22;59977;48.782;9.190;2023-07-29T06:42:34;20.30;99.90
24632;DHT22;59977;48.782;9.190;2023-07-29T06:44:59;20.30;99.90
24632;DHT22;59977;48.782;9.190;2023-07-29T06:47:25;20.30;99.90
24632;DHT22;59977;48.782;9.190;2023-07-29T06:49:51;20.30;99.90
24632;DHT22;59977;48.782;9.190;2023-07-29T06:52:16;20.30;99.90
24632;DHT22;59977;48.782;9.190;2023-07-29T06:54:42;20.20;99.90
24632;DHT22;59977;48.782;9.190;2023-07-29T06:57:07;20.20;99.90
24632;DHT22;59977;48.782;9.190;2023-07-29T06:59:33;20.20;99.90
24632;DHT22;59977;48.782;9.190;2023-07-29T07:01:59;20.20;99.90
24632;DHT22;59977;48.782;9.190;2023-07-29T07:04:25;20.10;99.90
24632;DHT22;59977;48.782;9.190;2023-07-29T07:06:51;20.10;99.90
24632;DHT22;59977;48.782;9.190;2023-07-29T07:09:16;20.10;99.90
24632;DHT22;59977;48.782;9.190;2023-07-29T07:11:42;20.10;99.90
24632;DHT22;59977;48.782;9.190;2023-07-29T07:14:07;20.10;99.90
24632;DHT22;59977;48.782;9.190;2023-07-29T07:16:33;20.10;99.90
24632;DHT22;59977;48.782;9.190;2023-07-29T07:19:00;20.00;99.90
24632;DHT22;59977;48.782;9.190;2023-07-29T07:21:26;20.00;99.90
24632;DHT22;59977;48.782;9.190;2023-07-29T07:23:52;20.00;99.90
24632;DHT22;59977;48.782;9.190;2023-07-29T07:26:17;20.00;99.90
24632;DHT22;59977;48.782;9.190;2023-07-29T07:28:43;20.00;99.90
24632;DHT22;59977;48.782;9.190;2023-07-29T07:31:08;20.00;99.90
24632;DHT22;59977;48.782;9.190;2023-07-29T07:33:34;20.10;99.90
24632;DHT22;59977;48.782;9.190;2023-07-29T07:36:00;20.10;99.90
24632;DHT22;59977;48.782;9.190;2023-07-29T07:38:26;20.20;99.90
24632;DHT22;59977;48.782;9.190;2023-07-29T07:40:55;20.30;99.90
24632;DHT22;59977;48.782;9.190;2023-07-29T07:43:21;20.30;99.90
24632;DHT22;59977;48.782;9.190;2023-07-29T07:45:47;20.40;99.90
24632;DHT22;59977;48.782;9.190;2023-07-29T07:48:12;20.50;99.90
24632;DHT22;59977;48.782;9.190;2023-07-29T07:50:39;20.60;99.90
24632;DHT22;59977;48.782;9.190;2023-07-29T07:53:05;20.60;99.90
24632;DHT22;59977;48.782;9.190;2023-07-29T07:55:30;20.60;99.90
24632;DHT22;59977;48.782;9.190;2023-07-29T07:57:56;20.60;99.90
24632;DHT22;59977;48.782;9.190;2023-07-29T08:00:22;20.60;99.90
24632;DHT22;59977;48.782;9.190;2023-07-29T08:02:47;20.60;99.90
24632;DHT22;59977;48.782;9.190;2023-07-29T08:05:13;20.60;99.90
24632;DHT22;59977;48.782;9.190;2023-07-29T08:07:39;20.60;99.90
24632;DHT22;59977;48.782;9.190;2023-07-29T08:10:05;20.70;99.90
24632;DHT22;59977;48.782;9.190;2023-07-29T08:12:30;20.70;99.90
24632;DHT22;59977;48.782;9.190;2023-07-29T08:14:56;20.70;99.90
24632;DHT22;59977;48.782;9.190;2023-07-29T08:17:22;20.90;99.90
24632;DHT22;59977;48.782;9.190;2023-07-29T08:19:47;20.90;99.90
24632;DHT22;59977;48.782;9.190;2023-07-29T08:22:13;21.10;99.90
24632;DHT22;59977;48.782;9.190;2023-07-29T08:24:39;21.30;99.90
24632;DHT22;59977;48.782;9.190;2023-07-29T08:27:05;21.40;99.90
24632;DHT22;59977;48.782;9.190;2023-07-29T08:29:31;21.50;99.90
24632;DHT22;59977;48.782;9.190;2023-07-29T08:31:58;21.40;99.90
24632;DHT22;59977;48.782;9.190;2023-07-29T08:34:24;21.40;99.90
24632;DHT22;59977;48.782;9.190;2023-07-29T08:36:49;21.40;99.90
24632;DHT22;59977;48.782;9.190;2023-07-29T08:39:15;21.40;99.90
24632;DHT22;59977;48.782;9.190;2023-07-29T08:41:49;21.70;99.90
24632;DHT22;59977;48.782;9.190;2023-07-29T08:44:23;21.60;99.90
24632;DHT22;59977;48.782;9.190;2023-07-29T08:46:51;21.70;99.90
24632;DHT22;59977;48.782;9.190;2023-07-29T08:49:19;21.60;99.90
24632;DHT22;59977;48.782;9.190;2023-07-29T08:51:46;21.70;99.90
24632;DHT22;59977;48.782;9.190;2023-07-29T08:54:13;21.70;99.90
24632;DHT22;59977;48.782;9.190;2023-07-29T08:56:42;22.00;99.90
24632;DHT22;59977;48.782;9.190;2023-07-29T08:59:09;22.00;99.90
24632;DHT22;59977;48.782;9.190;2023-07-29T09:01:36;22.10;99.90
24632;DHT22;59977;48.782;9.190;2023-07-29T09:04:02;22.30;99.90
24632;DHT22;59977;48.782;9.190;2023-07-29T09:06:28;22.40;99.90
24632;DHT22;59977;48.782;9.190;2023-07-29T09:08:54;22.60;99.90
24632;DHT22;59977;48.782;9.190;2023-07-29T09:11:22;23.00;99.90
24632;DHT22;59977;48.782;9.190;2023-07-29T09:13:48;23.10;99.90
24632;DHT22;59977;48.782;9.190;2023-07-29T09:16:14;23.10;99.90
24632;DHT22;59977;48.782;9.190;2023-07-29T09:18:40;23.10;99.90
24632;DHT22;59977;48.782;9.190;2023-07-29T09:21:06;23.00;99.90
24632;DHT22;59977;48.782;9.190;2023-07-29T09:23:44;23.00;99.90
24632;DHT22;59977;48.782;9.190;2023-07-29T09:26:10;22.80;99.90
24632;DHT22;59977;48.782;9.190;2023-07-29T09:28:40;22.90;99.90
24632;DHT22;59977;48.782;9.190;2023-07-29T09:31:06;23.00;99.90
24632;DHT22;59977;48.782;9.190;2023-07-29T09:33:35;23.20;99.90
24632;DHT22;59977;48.782;9.190;2023-07-29T09:36:08;23.40;99.90
24632;DHT22;59977;48.782;9.190;2023-07-29T09:38:34;23.60;99.90
24632;DHT22;59977;48.782;9.190;2023-07-29T09:40:59;23.80;99.90
24632;DHT22;59977;48.782;9.190;2023-07-29T09:43:29;23.90;99.90
24632;DHT22;59977;48.782;9.190;2023-07-29T09:45:55;24.10;99.90
24632;DHT22;59977;48.782;9.190;2023-07-29T09:48:23;24.10;99.90
24632;DHT22;59977;48.782;9.190;2023-07-29T09:50:50;24.00;99.90
24632;DHT22;59977;48.782;9.190;2023-07-29T09:53:17;23.80;99.90
24632;DHT22;59977;48.782;9.190;2023-07-29T09:55:47;23.80;99.90
24632;DHT22;59977;48.782;9.190;2023-07-29T09:58:14;23.90;99.90
24632;DHT22;59977;48.782;9.190;2023-07-29T10:00:40;23.90;99.90
24632;DHT22;59977;48.782;9.190;2023-07-29T10:03:06;23.90;99.90
24632;DHT22;59977;48.782;9.190;2023-07-29T10:05:33;23.80;99.90
24632;DHT22;59977;48.782;9.190;2023-07-29T10:08:01;23.90;99.90
24632;DHT22;59977;48.782;9.190;2023-07-29T10:10:28;24.00;99.90
24632;DHT22;59977;48.782;9.190;2023-07-29T10:12:54;24.20;99.90
24632;DHT22;59977;48.782;9.190;2023-07-29T10:15:21;24.20;99.90
24632;DHT22;59977;48.782;9.190;2023-07-29T10:17:47;24.30;99.90
24632;DHT22;59977;48.782;9.190;2023-07-29T10:20:13;24.40;99.90
24632;DHT22;59977;48.782;9.190;2023-07-29T10:22:43;24.20;99.90
24632;DHT22;59977;48.782;9.190;2023-07-29T10:25:38;24.20;99.90
24632;DHT22;59977;48.782;9.190;2023-07-29T10:28:07;24.10;99.90
24632;DHT22;59977;48.782;9.190;2023-07-29T10:30:33;24.00;99.90
24632;DHT22;59977;48.782;9.190;2023-07-29T10:33:02;24.00;99.90
24632;DHT22;59977;48.782;9.190;2023-07-29T10:35:38;23.90;99.90
24632;DHT22;59977;48.782;9.190;2023-07-29T10:38:04;23.60;99.90
24632;DHT22;59977;48.782;9.190;2023-07-29T10:40:53;23.50;99.90
24632;DHT22;59977;48.782;9.190;2023-07-29T10:43:32;23.40;99.90
24632;DHT22;59977;48.782;9.190;2023-07-29T10:46:15;23.40;99.90
24632;DHT22;59977;48.782;9.190;2023-07-29T10:48:52;23.40;99.90
24632;DHT22;59977;48.782;9.190;2023-07-29T10:54:11;23.40;99.90
24632;DHT22;59977;48.782;9.190;2023-07-29T10:56:41;23.40;99.90
24632;DHT22;59977;48.782;9.190;2023-07-29T11:01:53;23.90;99.90
24632;DHT22;59977;48.782;9.190;2023-07-29T11:09:58;24.60;99.90
24632;DHT22;59977;48.782;9.190;2023-07-29T11:12:38;24.50;99.90
24632;DHT22;59977;48.782;9.190;2023-07-29T11:17:38;24.60;99.90
24632;DHT22;59977;48.782;9.190;2023-07-29T11:20:05;24.60;99.90
24632;DHT22;59977;48.782;9.190;2023-07-29T11:22:32;24.70;99.90
24632;DHT22;59977;48.782;9.190;2023-07-29T11:24:58;24.80;99.90
24632;DHT22;59977;48.782;9.190;2023-07-29T11:27:24;24.80;99.90
24632;DHT22;59977;48.782;9.190;2023-07-29T11:29:50;25.00;99.90
24632;DHT22;59977;48.782;9.190;2023-07-29T11:32:16;25.00;99.90
24632;DHT22;59977;48.782;9.190;2023-07-29T11:34:42;24.90;99.90
24632;DHT22;59977;48.782;9.190;2023-07-29T11:37:11;24.80;99.90
24632;DHT22;59977;48.782;9.190;2023-07-29T11:39:44;24.80;99.90
24632;DHT22;59977;48.782;9.190;2023-07-29T11:42:14;24.90;99.90
24632;DHT22;59977;48.782;9.190;2023-07-29T11:44:40;24.90;99.90
24632;DHT22;59977;48.782;9.190;2023-07-29T11:47:09;25.00;99.90
24632;DHT22;59977;48.782;9.190;2023-07-29T11:49:36;25.00;99.90
24632;DHT22;59977;48.782;9.190;2023-07-29T11:52:04;25.20;99.90
24632;DHT22;59977;48.782;9.190;2023-07-29T11:54:31;25.20;99.90
24632;DHT22;59977;48.782;9.190;2023-07-29T11:56:57;25.30;99.90
24632;DHT22;59977;48.782;9.190;2023-07-29T11:59:23;25.40;99.90
24632;DHT22;59977;48.782;9.190;2023-07-29T12:01:49;25.50;99.90
24632;DHT22;59977;48.782;9.190;2023-07-29T12:04:15;25.60;99.90
24632;DHT22;59977;48.782;9.190;2023-07-29T12:06:42;25.70;99.90
24632;DHT22;59977;48.782;9.190;2023-07-29T12:09:07;25.70;99.90
24632;DHT22;59977;48.782;9.190;2023-07-29T12:11:34;25.90;99.90
24632;DHT22;59977;48.782;9.190;2023-07-29T12:14:00;26.00;99.90
24632;DHT22;59977;48.782;9.190;2023-07-29T12:16:26;26.10;99.90
24632;DHT22;59977;48.782;9.190;2023-07-29T12:18:52;26.10;99.90
24632;DHT22;59977;48.782;9.190;2023-07-29T12:21:21;26.10;99.90
24632;DHT22;59977;48.782;9.190;2023-07-29T12:23:46;26.00;99.90
24632;DHT22;59977;48.782;9.190;2023-07-29T12:26:12;26.10;99.90
24632;DHT22;59977;48.782;9.190;2023-07-29T12:28:37;26.10;99.90
24632;DHT22;59977;48.782;9.190;2023-07-29T12:31:07;26.00;99.90
24632;DHT22;59977;48.782;9.190;2023-07-29T12:33:37;26.00;99.90
24632;DHT22;59977;48.782;9.190;2023-07-29T12:36:07;26.00;99.90
24632;DHT22;59977;48.782;9.190;2023-07-29T12:38:33;26.00;99.90
24632;DHT22;59977;48.782;9.190;2023-07-29T12:40:59;26.00;99.90
24632;DHT22;59977;48.782;9.190;2023-07-29T12:43:25;26.00;99.90
24632;DHT22;59977;48.782;9.190;2023-07-29T12:45:51;26.10;99.90
24632;DHT22;59977;48.782;9.190;2023-07-29T12:48:17;26.10;99.90
24632;DHT22;59977;48.782;9.190;2023-07-29T12:50:43;26.20;99.90
24632;DHT22;59977;48.782;9.190;2023-07-29T12:53:09;26.30;99.90
24632;DHT22;59977;48.782;9.190;2023-07-29T12:55:36;26.50;99.90
24632;DHT22;59977;48.782;9.190;2023-07-29T12:58:02;26.50;99.90
24632;DHT22;59977;48.782;9.190;2023-07-29T13:00:27;26.50;99.90
24632;DHT22;59977;48.782;9.190;2023-07-29T13:02:53;26.60;99.90
24632;DHT22;59977;48.782;9.190;2023-07-29T13:05:19;26.70;99.90
24632;DHT22;59977;48.782;9.190;2023-07-29T13:07:45;26.80;99.90
24632;DHT22;59977;48.782;9.190;2023-07-29T13:10:11;27.10;99.90
24632;DHT22;59977;48.782;9.190;2023-07-29T13:12:38;27.00;99.60
24632;DHT22;59977;48.782;9.190;2023-07-29T13:15:04;27.00;98.80
24632;DHT22;59977;48.782;9.190;2023-07-29T13:17:30;26.90;99.60
24632;DHT22;59977;48.782;9.190;2023-07-29T13:19:55;27.20;99.90
24632;DHT22;59977;48.782;9.190;2023-07-29T13:22:21;27.40;98.40
24632;DHT22;59977;48.782;9.190;2023-07-29T13:24:49;27.60;98.70
24632;DHT22;59977;48.782;9.190;2023-07-29T13:27:15;27.80;98.00
24632;DHT22;59977;48.782;9.190;2023-07-29T13:29:40;27.80;97.40
24632;DHT22;59977;48.782;9.190;2023-07-29T13:32:07;27.70;97.10
24632;DHT22;59977;48.782;9.190;2023-07-29T13:34:33;27.60;96.90
24632;DHT22;59977;48.782;9.190;2023-07-29T13:36:59;27.30;97.50
24632;DHT22;59977;48.782;9.190;2023-07-29T13:39:25;27.00;96.80
24632;DHT22;59977;48.782;9.190;2023-07-29T13:41:51;26.80;97.40
24632;DHT22;59977;48.782;9.190;2023-07-29T13:44:16;26.80;97.30
24632;DHT22;59977;48.782;9.190;2023-07-29T13:46:42;26.80;97.70
24632;DHT22;59977;48.782;9.190;2023-07-29T13:49:07;26.80;97.80
24632;DHT22;59977;48.782;9.190;2023-07-29T13:51:33;27.00;97.90
24632;DHT22;59977;48.782;9.190;2023-07-29T13:53:59;27.10;96.80
24632;DHT22;59977;48.782;9.190;2023-07-29T13:56:24;27.00;97.10
24632;DHT22;59977;48.782;9.190;2023-07-29T13:58:50;26.90;97.10
24632;DHT22;59977;48.782;9.190;2023-07-29T14:01:15;26.90;97.30
24632;DHT22;59977;48.782;9.190;2023-07-29T14:03:42;27.10;97.50
24632;DHT22;59977;48.782;9.190;2023-07-29T14:06:08;27.10;97.00
24632;DHT22;59977;48.782;9.190;2023-07-29T14:08:33;27.10;97.40
24632;DHT22;59977;48.782;9.190;2023-07-29T14:11:01;27.20;97.40
24632;DHT22;59977;48.782;9.190;2023-07-29T14:13:26;27.40;96.80
24632;DHT22;59977;48.782;9.190;2023-07-29T14:15:52;27.40;95.80
24632;DHT22;59977;48.782;9.190;2023-07-29T14:18:18;28.00;95.70
24632;DHT22;59977;48.782;9.190;2023-07-29T14:20:43;28.60;94.50
24632;DHT22;59977;48.782;9.190;2023-07-29T14:23:09;29.10;93.80
24632;DHT22;59977;48.782;9.190;2023-07-29T14:25:35;28.90;93.80
24632;DHT22;59977;48.782;9.190;2023-07-29T14:28:00;29.40;93.10
24632;DHT22;59977;48.782;9.190;2023-07-29T14:30:26;29.70;92.50
24632;DHT22;59977;48.782;9.190;2023-07-29T14:33:03;29.70;92.00
24632;DHT22;59977;48.782;9.190;2023-07-29T14:35:30;29.20;92.50
24632;DHT22;59977;48.782;9.190;2023-07-29T14:37:56;28.90;92.60
24632;DHT22;59977;48.782;9.190;2023-07-29T14:40:21;28.40;93.30
24632;DHT22;59977;48.782;9.190;2023-07-29T14:42:47;28.00;94.00
24632;DHT22;59977;48.782;9.190;2023-07-29T14:45:13;27.70;94.60
24632;DHT22;59977;48.782;9.190;2023-07-29T14:47:38;27.50;95.60
24632;DHT22;59977;48.782;9.190;2023-07-29T14:50:04;27.30;96.10
24632;DHT22;59977;48.782;9.190;2023-07-29T14:52:30;27.20;95.30
24632;DHT22;59977;48.782;9.190;2023-07-29T14:54:55;26.90;95.70
24632;DHT22;59977;48.782;9.190;2023-07-29T14:57:22;26.90;96.50
24632;DHT22;59977;48.782;9.190;2023-07-29T14:59:48;26.90;96.70
24632;DHT22;59977;48.782;9.190;2023-07-29T15:02:14;27.00;96.60
24632;DHT22;59977;48.782;9.190;2023-07-29T15:04:39;27.50;95.50
24632;DHT22;59977;48.782;9.190;2023-07-29T15:07:05;27.40;95.30
24632;DHT22;59977;48.782;9.190;2023-07-29T15:09:31;27.20;95.80
24632;DHT22;59977;48.782;9.190;2023-07-29T15:11:56;27.10;96.10
24632;DHT22;59977;48.782;9.190;2023-07-29T15:14:22;27.40;96.10
24632;DHT22;59977;48.782;9.190;2023-07-29T15:16:47;28.00;95.40
24632;DHT22;59977;48.782;9.190;2023-07-29T15:19:13;28.20;95.20
24632;DHT22;59977;48.782;9.190;2023-07-29T15:21:39;28.00;94.80
24632;DHT22;59977;48.782;9.190;2023-07-29T15:24:05;27.80;95.30
24632;DHT22;59977;48.782;9.190;2023-07-29T15:26:30;27.90;95.20
24632;DHT22;59977;48.782;9.190;2023-07-29T15:28:59;28.30;95.00
24632;DHT22;59977;48.782;9.190;2023-07-29T15:31:25;28.80;94.30
24632;DHT22;59977;48.782;9.190;2023-07-29T15:33:50;29.00;93.70
24632;DHT22;59977;48.782;9.190;2023-07-29T15:36:16;28.90;93.50
24632;DHT22;59977;48.782;9.190;2023-07-29T15:38:42;29.20;93.80
24632;DHT22;59977;48.782;9.190;2023-07-29T15:41:08;30.10;92.80
24632;DHT22;59977;48.782;9.190;2023-07-29T15:43:33;31.10;91.70
24632;DHT22;59977;48.782;9.190;2023-07-29T15:45:59;32.50;88.50
24632;DHT22;59977;48.782;9.190;2023-07-29T15:48:24;32.70;84.60
24632;DHT22;59977;48.782;9.190;2023-07-29T15:50:50;31.70;83.70
24632;DHT22;59977;48.782;9.190;2023-07-29T15:53:16;30.40;86.80
24632;DHT22;59977;48.782;9.190;2023-07-29T15:55:41;31.20;88.60
24632;DHT22;59977;48.782;9.190;2023-07-29T15:58:07;33.60;84.80